sensor_id;sensor_type;location;lat;lon;timestamp;temperature;humidity
43561;DHT22;32305;46.410;17.394;2023-12-29T00:01:30;22.20;37.80
43561;DHT22;32305;46.410;17.394;2023-12-29T00:03:57;22.30;37.80
43561;DHT22;32305;46.410;17.394;2023-12-29T00:06:24;22.20;37.80
43561;DHT22;32305;46.410;17.394;2023-12-29T00:08:51;22.30;37.80
43561;DHT22;32305;46.410;17.394;2023-12-29T00:11:19;22.20;37.70
43561;DHT22;32305;46.410;17.394;2023-12-29T00:13:46;22.20;37.70
43561;DHT22;32305;46.410;17.394;2023-12-29T00:16:14;22.30;37.80
43561;DHT22;32305;46.410;17.394;2023-12-29T00:18:41;22.20;37.80
43561;DHT22;32305;46.410;17.394;2023-12-29T00:21:08;22.20;37.80
43561;DHT22;32305;46.410;17.394;2023-12-29T00:23:35;22.20;37.80
43561;DHT22;32305;46.410;17.394;2023-12-29T00:26:02;22.20;37.80
43561;DHT22;32305;46.410;17.394;2023-12-29T00:28:29;22.20;37.80
43561;DHT22;32305;46.410;17.394;2023-12-29T00:30:56;22.20;37.80
43561;DHT22;32305;46.410;17.394;2023-12-29T00:33:28;22.20;37.80
43561;DHT22;32305;46.410;17.394;2023-12-29T00:35:56;22.20;37.80
43561;DHT22;32305;46.410;17.394;2023-12-29T00:38:24;22.20;37.80
43561;DHT22;32305;46.410;17.394;2023-12-29T00:40:51;22.20;37.80
43561;DHT22;32305;46.410;17.394;2023-12-29T00:43:18;22.10;37.80
43561;DHT22;32305;46.410;17.394;2023-12-29T00:45:45;22.20;37.80
43561;DHT22;32305;46.410;17.394;2023-12-29T00:48:11;22.10;37.70
43561;DHT22;32305;46.410;17.394;2023-12-29T00:50:39;22.10;37.80
43561;DHT22;32305;46.410;17.394;2023-12-29T00:53:06;22.10;37.80
43561;DHT22;32305;46.410;17.394;2023-12-29T00:55:32;22.10;37.80
43561;DHT22;32305;46.410;17.394;2023-12-29T00:57:59;22.10;37.80
43561;DHT22;32305;46.410;17.394;2023-12-29T01:00:27;22.10;37.80
43561;DHT22;32305;46.410;17.394;2023-12-29T01:02:54;22.10;37.80
43561;DHT22;32305;46.410;17.394;2023-12-29T01:05:21;22.10;37.80
43561;DHT22;32305;46.410;17.394;2023-12-29T01:07:48;22.10;37.80
43561;DHT22;32305;46.410;17.394;2023-12-29T01:10:15;22.10;37.80
43561;DHT22;32305;46.410;17.394;2023-12-29T01:12:42;22.10;37.80
43561;DHT22;32305;46.410;17.394;2023-12-29T01:15:09;22.10;37.70
43561;DHT22;32305;46.410;17.394;2023-12-29T01:17:36;22.10;37.80
43561;DHT22;32305;46.410;17.394;2023-12-29T01:20:03;22.10;37.80
43561;DHT22;32305;46.410;17.394;2023-12-29T01:22:31;22.10;37.80
43561;DHT22;32305;46.410;17.394;2023-12-29T01:24:58;22.10;37.80
43561;DHT22;32305;46.410;17.394;2023-12-29T01:27:26;22.10;37.80
43561;DHT22;32305;46.410;17.394;2023-12-29T01:29:53;22.10;37.80
43561;DHT22;32305;46.410;17.394;2023-12-29T01:32:20;22.10;37.80
43561;DHT22;32305;46.410;17.394;2023-12-29T01:34:47;22.10;37.80
43561;DHT22;32305;46.410;17.394;2023-12-29T01:37:14;22.10;37.80
43561;DHT22;32305;46.410;17.394;2023-12-29T01:39:41;22.10;37.80
43561;DHT22;32305;46.410;17.394;2023-12-29T01:42:08;22.10;37.80
43561;DHT22;32305;46.410;17.394;2023-12-29T01:44:35;22.10;37.80
43561;DHT22;32305;46.410;17.394;2023-12-29T01:47:02;22.10;37.80
43561;DHT22;32305;46.410;17.394;2023-12-29T01:49:33;22.00;37.80
43561;DHT22;32305;46.410;17.394;2023-12-29T01:52:00;22.10;37.80
43561;DHT22;32305;46.410;17.394;2023-12-29T01:54:28;22.00;37.70
43561;DHT22;32305;46.410;17.394;2023-12-29T01:56:57;22.10;37.80
43561;DHT22;32305;46.410;17.394;2023-12-29T01:59:26;22.10;37.80
43561;DHT22;32305;46.410;17.394;2023-12-29T02:01:54;22.10;37.80
43561;DHT22;32305;46.410;17.394;2023-12-29T02:04:25;22.00;37.80
43561;DHT22;32305;46.410;17.394;2023-12-29T02:06:52;22.00;37.80
43561;DHT22;32305;46.410;17.394;2023-12-29T02:09:20;22.00;37.80
43561;DHT22;32305;46.410;17.394;2023-12-29T02:11:47;22.00;37.80
43561;DHT22;32305;46.410;17.394;2023-12-29T02:14:14;22.00;37.80
43561;DHT22;32305;46.410;17.394;2023-12-29T02:16:52;22.10;37.80
43561;DHT22;32305;46.410;17.394;2023-12-29T02:19:25;22.00;37.90
43561;DHT22;32305;46.410;17.394;2023-12-29T02:21:59;22.00;37.70
43561;DHT22;32305;46.410;17.394;2023-12-29T02:24:26;22.00;37.80
43561;DHT22;32305;46.410;17.394;2023-12-29T02:26:56;22.10;37.80
43561;DHT22;32305;46.410;17.394;2023-12-29T02:29:24;22.00;37.80
43561;DHT22;32305;46.410;17.394;2023-12-29T02:31:52;22.00;37.80
43561;DHT22;32305;46.410;17.394;2023-12-29T02:34:21;22.00;37.80
43561;DHT22;32305;46.410;17.394;2023-12-29T02:36:49;22.00;37.80
43561;DHT22;32305;46.410;17.394;2023-12-29T02:39:17;22.00;37.80
43561;DHT22;32305;46.410;17.394;2023-12-29T02:41:44;22.00;37.80
43561;DHT22;32305;46.410;17.394;2023-12-29T02:44:11;22.00;37.70
43561;DHT22;32305;46.410;17.394;2023-12-29T02:46:38;22.00;37.80
43561;DHT22;32305;46.410;17.394;2023-12-29T02:49:05;22.00;37.80
43561;DHT22;32305;46.410;17.394;2023-12-29T02:51:32;22.00;37.80
43561;DHT22;32305;46.410;17.394;2023-12-29T02:53:59;22.00;37.80
43561;DHT22;32305;46.410;17.394;2023-12-29T02:56:26;22.00;37.90
43561;DHT22;32305;46.410;17.394;2023-12-29T02:58:53;22.00;37.80
43561;DHT22;32305;46.410;17.394;2023-12-29T03:01:20;21.90;37.80
43561;DHT22;32305;46.410;17.394;2023-12-29T03:03:47;22.00;37.80
43561;DHT22;32305;46.410;17.394;2023-12-29T03:06:14;22.00;37.80
43561;DHT22;32305;46.410;17.394;2023-12-29T03:08:41;21.90;37.80
43561;DHT22;32305;46.410;17.394;2023-12-29T03:11:08;22.00;37.90
43561;DHT22;32305;46.410;17.394;2023-12-29T03:13:35;22.00;37.80
43561;DHT22;32305;46.410;17.394;2023-12-29T03:16:02;22.00;38.40
43561;DHT22;32305;46.410;17.394;2023-12-29T03:18:29;22.00;37.80
43561;DHT22;32305;46.410;17.394;2023-12-29T03:20:56;22.00;37.80
43561;DHT22;32305;46.410;17.394;2023-12-29T03:23:23;22.00;37.80
43561;DHT22;32305;46.410;17.394;2023-12-29T03:25:50;22.00;37.80
43561;DHT22;32305;46.410;17.394;2023-12-29T03:28:17;22.00;37.80
43561;DHT22;32305;46.410;17.394;2023-12-29T03:30:44;22.00;37.80
43561;DHT22;32305;46.410;17.394;2023-12-29T03:33:11;21.90;37.70
43561;DHT22;32305;46.410;17.394;2023-12-29T03:35:38;21.90;37.70
43561;DHT22;32305;46.410;17.394;2023-12-29T03:38:05;21.90;37.80
43561;DHT22;32305;46.410;17.394;2023-12-29T03:40:32;21.90;37.80
43561;DHT22;32305;46.410;17.394;2023-12-29T03:42:59;21.90;37.80
43561;DHT22;32305;46.410;17.394;2023-12-29T03:45:26;21.90;37.80
43561;DHT22;32305;46.410;17.394;2023-12-29T03:47:53;21.90;38.00
43561;DHT22;32305;46.410;17.394;2023-12-29T03:50:20;21.90;37.80
43561;DHT22;32305;46.410;17.394;2023-12-29T03:52:47;21.90;37.80
43561;DHT22;32305;46.410;17.394;2023-12-29T03:55:14;21.90;37.80
43561;DHT22;32305;46.410;17.394;2023-12-29T03:57:42;21.90;37.80
43561;DHT22;32305;46.410;17.394;2023-12-29T04:00:13;21.90;37.80
43561;DHT22;32305;46.410;17.394;2023-12-29T04:02:40;21.90;37.70
43561;DHT22;32305;46.410;17.394;2023-12-29T04:05:08;21.90;37.70
43561;DHT22;32305;46.410;17.394;2023-12-29T04:07:36;21.90;37.70
43561;DHT22;32305;46.410;17.394;2023-12-29T04:10:03;21.90;37.80
43561;DHT22;32305;46.410;17.394;2023-12-29T04:12:31;21.90;37.80
43561;DHT22;32305;46.410;17.394;2023-12-29T04:14:58;21.90;37.80
43561;DHT22;32305;46.410;17.394;2023-12-29T04:17:24;21.90;37.80
43561;DHT22;32305;46.410;17.394;2023-12-29T04:19:51;21.90;37.80
43561;DHT22;32305;46.410;17.394;2023-12-29T04:22:19;21.90;37.80
43561;DHT22;32305;46.410;17.394;2023-12-29T04:24:46;21.90;37.80
43561;DHT22;32305;46.410;17.394;2023-12-29T04:27:14;21.90;37.80
43561;DHT22;32305;46.410;17.394;2023-12-29T04:29:41;21.90;37.70
43561;DHT22;32305;46.410;17.394;2023-12-29T04:32:07;21.90;37.70
43561;DHT22;32305;46.410;17.394;2023-12-29T04:34:34;21.90;37.80
43561;DHT22;32305;46.410;17.394;2023-12-29T04:37:01;21.90;37.80
43561;DHT22;32305;46.410;17.394;2023-12-29T04:39:28;21.90;37.70
43561;DHT22;32305;46.410;17.394;2023-12-29T04:41:55;21.90;37.60
43561;DHT22;32305;46.410;17.394;2023-12-29T04:44:22;21.90;37.50
43561;DHT22;32305;46.410;17.394;2023-12-29T04:46:49;21.90;37.40
43561;DHT22;32305;46.410;17.394;2023-12-29T04:49:16;21.90;37.30
43561;DHT22;32305;46.410;17.394;2023-12-29T04:51:43;21.90;37.20
43561;DHT22;32305;46.410;17.394;2023-12-29T04:54:10;21.90;37.10
43561;DHT22;32305;46.410;17.394;2023-12-29T04:56:37;22.00;37.00
43561;DHT22;32305;46.410;17.394;2023-12-29T04:59:04;22.00;37.00
43561;DHT22;32305;46.410;17.394;2023-12-29T05:01:31;21.90;37.00
43561;DHT22;32305;46.410;17.394;2023-12-29T05:03:58;21.90;36.90
43561;DHT22;32305;46.410;17.394;2023-12-29T05:06:25;22.00;37.50
43561;DHT22;32305;46.410;17.394;2023-12-29T05:08:52;21.90;36.80
43561;DHT22;32305;46.410;17.394;2023-12-29T05:11:19;21.90;36.70
43561;DHT22;32305;46.410;17.394;2023-12-29T05:13:46;22.00;36.70
43561;DHT22;32305;46.410;17.394;2023-12-29T05:16:13;22.00;36.70
43561;DHT22;32305;46.410;17.394;2023-12-29T05:18:40;22.00;36.70
43561;DHT22;32305;46.410;17.394;2023-12-29T05:21:13;22.00;36.60
43561;DHT22;32305;46.410;17.394;2023-12-29T05:23:40;22.00;36.50
43561;DHT22;32305;46.410;17.394;2023-12-29T05:26:07;22.00;36.50
43561;DHT22;32305;46.410;17.394;2023-12-29T05:28:34;22.00;36.50
43561;DHT22;32305;46.410;17.394;2023-12-29T05:31:01;22.00;36.40
43561;DHT22;32305;46.410;17.394;2023-12-29T05:33:31;22.00;36.40
43561;DHT22;32305;46.410;17.394;2023-12-29T05:35:58;22.00;36.40
43561;DHT22;32305;46.410;17.394;2023-12-29T05:38:25;22.10;36.40
43561;DHT22;32305;46.410;17.394;2023-12-29T05:40:52;22.10;36.30
43561;DHT22;32305;46.410;17.394;2023-12-29T05:43:19;22.10;36.30
43561;DHT22;32305;46.410;17.394;2023-12-29T05:45:46;22.10;36.30
43561;DHT22;32305;46.410;17.394;2023-12-29T05:48:13;22.10;36.30
43561;DHT22;32305;46.410;17.394;2023-12-29T05:50:40;22.10;36.30
43561;DHT22;32305;46.410;17.394;2023-12-29T05:53:07;22.10;36.30
43561;DHT22;32305;46.410;17.394;2023-12-29T05:55:34;22.10;36.20
43561;DHT22;32305;46.410;17.394;2023-12-29T05:58:01;22.10;36.20
43561;DHT22;32305;46.410;17.394;2023-12-29T06:00:29;22.10;36.20
43561;DHT22;32305;46.410;17.394;2023-12-29T06:02:55;22.10;36.20
43561;DHT22;32305;46.410;17.394;2023-12-29T06:05:22;22.10;36.20
43561;DHT22;32305;46.410;17.394;2023-12-29T06:07:49;22.10;36.20
43561;DHT22;32305;46.410;17.394;2023-12-29T06:10:16;22.10;36.20
43561;DHT22;32305;46.410;17.394;2023-12-29T06:12:43;22.10;36.10
43561;DHT22;32305;46.410;17.394;2023-12-29T06:15:12;22.10;36.10
43561;DHT22;32305;46.410;17.394;2023-12-29T06:17:39;22.10;36.10
43561;DHT22;32305;46.410;17.394;2023-12-29T06:20:07;22.10;36.00
43561;DHT22;32305;46.410;17.394;2023-12-29T06:22:39;22.10;36.00
43561;DHT22;32305;46.410;17.394;2023-12-29T06:25:11;22.10;36.00
43561;DHT22;32305;46.410;17.394;2023-12-29T06:27:38;22.10;36.00
43561;DHT22;32305;46.410;17.394;2023-12-29T06:30:07;22.20;36.10
43561;DHT22;32305;46.410;17.394;2023-12-29T06:32:34;22.20;36.20
43561;DHT22;32305;46.410;17.394;2023-12-29T06:35:01;22.20;36.20
43561;DHT22;32305;46.410;17.394;2023-12-29T06:37:28;22.20;36.30
43561;DHT22;32305;46.410;17.394;2023-12-29T06:39:55;22.20;36.70
43561;DHT22;32305;46.410;17.394;2023-12-29T06:42:22;22.20;37.20
43561;DHT22;32305;46.410;17.394;2023-12-29T06:44:49;22.20;37.80
43561;DHT22;32305;46.410;17.394;2023-12-29T06:47:16;22.30;37.80
43561;DHT22;32305;46.410;17.394;2023-12-29T06:49:43;22.30;37.90
43561;DHT22;32305;46.410;17.394;2023-12-29T06:52:10;22.40;38.10
43561;DHT22;32305;46.410;17.394;2023-12-29T06:54:37;22.40;38.50
43561;DHT22;32305;46.410;17.394;2023-12-29T06:57:06;22.40;38.40
43561;DHT22;32305;46.410;17.394;2023-12-29T06:59:33;22.50;38.40
43561;DHT22;32305;46.410;17.394;2023-12-29T07:02:00;22.50;38.50
43561;DHT22;32305;46.410;17.394;2023-12-29T07:04:27;22.50;38.50
43561;DHT22;32305;46.410;17.394;2023-12-29T07:06:54;22.60;38.50
43561;DHT22;32305;46.410;17.394;2023-12-29T07:09:21;22.60;38.50
43561;DHT22;32305;46.410;17.394;2023-12-29T07:11:48;22.70;38.20
43561;DHT22;32305;46.410;17.394;2023-12-29T07:14:16;22.70;38.00
43561;DHT22;32305;46.410;17.394;2023-12-29T07:16:43;22.70;37.90
43561;DHT22;32305;46.410;17.394;2023-12-29T07:19:10;22.80;37.90
43561;DHT22;32305;46.410;17.394;2023-12-29T07:21:38;22.80;37.90
43561;DHT22;32305;46.410;17.394;2023-12-29T07:24:05;22.80;37.80
43561;DHT22;32305;46.410;17.394;2023-12-29T07:26:32;22.90;37.70
43561;DHT22;32305;46.410;17.394;2023-12-29T07:29:02;22.90;37.50
43561;DHT22;32305;46.410;17.394;2023-12-29T07:31:29;23.00;37.50
43561;DHT22;32305;46.410;17.394;2023-12-29T07:33:56;23.00;37.50
43561;DHT22;32305;46.410;17.394;2023-12-29T07:36:23;23.00;37.50
43561;DHT22;32305;46.410;17.394;2023-12-29T07:38:50;23.10;37.50
43561;DHT22;32305;46.410;17.394;2023-12-29T07:41:17;23.10;37.50
43561;DHT22;32305;46.410;17.394;2023-12-29T07:43:45;23.10;37.50
43561;DHT22;32305;46.410;17.394;2023-12-29T07:46:12;23.10;37.40
43561;DHT22;32305;46.410;17.394;2023-12-29T07:48:39;23.10;37.30
43561;DHT22;32305;46.410;17.394;2023-12-29T07:51:06;23.20;37.40
43561;DHT22;32305;46.410;17.394;2023-12-29T07:53:33;23.30;37.40
43561;DHT22;32305;46.410;17.394;2023-12-29T07:56:00;23.30;37.30
43561;DHT22;32305;46.410;17.394;2023-12-29T07:58:27;23.40;37.30
43561;DHT22;32305;46.410;17.394;2023-12-29T08:00:55;23.40;37.40
43561;DHT22;32305;46.410;17.394;2023-12-29T08:03:22;23.40;37.40
43561;DHT22;32305;46.410;17.394;2023-12-29T08:05:49;23.40;37.20
43561;DHT22;32305;46.410;17.394;2023-12-29T08:08:16;23.50;37.10
43561;DHT22;32305;46.410;17.394;2023-12-29T08:10:43;23.50;37.10
43561;DHT22;32305;46.410;17.394;2023-12-29T08:13:10;23.50;37.10
43561;DHT22;32305;46.410;17.394;2023-12-29T08:15:37;23.50;37.00
43561;DHT22;32305;46.410;17.394;2023-12-29T08:18:04;23.60;37.00
43561;DHT22;32305;46.410;17.394;2023-12-29T08:20:31;23.60;37.00
43561;DHT22;32305;46.410;17.394;2023-12-29T08:22:58;23.50;36.90
43561;DHT22;32305;46.410;17.394;2023-12-29T08:25:25;23.60;36.90
43561;DHT22;32305;46.410;17.394;2023-12-29T08:27:52;23.60;36.80
43561;DHT22;32305;46.410;17.394;2023-12-29T08:30:19;23.60;36.80
43561;DHT22;32305;46.410;17.394;2023-12-29T08:32:46;23.60;36.80
43561;DHT22;32305;46.410;17.394;2023-12-29T08:35:13;23.70;36.80
43561;DHT22;32305;46.410;17.394;2023-12-29T08:37:40;23.70;36.80
43561;DHT22;32305;46.410;17.394;2023-12-29T08:40:07;23.80;36.70
43561;DHT22;32305;46.410;17.394;2023-12-29T08:42:34;23.80;36.60
43561;DHT22;32305;46.410;17.394;2023-12-29T08:45:01;23.80;36.50
43561;DHT22;32305;46.410;17.394;2023-12-29T08:47:32;23.90;36.50
43561;DHT22;32305;46.410;17.394;2023-12-29T08:50:00;23.90;36.50
43561;DHT22;32305;46.410;17.394;2023-12-29T08:52:28;23.90;36.40
43561;DHT22;32305;46.410;17.394;2023-12-29T08:54:55;23.90;36.40
43561;DHT22;32305;46.410;17.394;2023-12-29T08:57:22;24.00;36.50
43561;DHT22;32305;46.410;17.394;2023-12-29T08:59:49;24.00;36.60
43561;DHT22;32305;46.410;17.394;2023-12-29T09:02:16;24.00;36.70
43561;DHT22;32305;46.410;17.394;2023-12-29T09:04:43;24.00;36.90
43561;DHT22;32305;46.410;17.394;2023-12-29T09:07:10;24.00;36.80
43561;DHT22;32305;46.410;17.394;2023-12-29T09:09:37;24.10;36.70
43561;DHT22;32305;46.410;17.394;2023-12-29T09:12:04;24.10;36.50
43561;DHT22;32305;46.410;17.394;2023-12-29T09:14:31;24.10;36.20
43561;DHT22;32305;46.410;17.394;2023-12-29T09:16:59;24.10;36.10
43561;DHT22;32305;46.410;17.394;2023-12-29T09:19:26;24.10;36.10
43561;DHT22;32305;46.410;17.394;2023-12-29T09:22:05;24.10;36.10
43561;DHT22;32305;46.410;17.394;2023-12-29T09:24:32;24.10;36.10
43561;DHT22;32305;46.410;17.394;2023-12-29T09:26:59;24.10;36.00
43561;DHT22;32305;46.410;17.394;2023-12-29T09:29:26;24.10;36.00
43561;DHT22;32305;46.410;17.394;2023-12-29T09:31:53;24.20;36.10
43561;DHT22;32305;46.410;17.394;2023-12-29T09:34:20;24.10;35.90
43561;DHT22;32305;46.410;17.394;2023-12-29T09:36:48;24.20;36.00
43561;DHT22;32305;46.410;17.394;2023-12-29T09:39:15;24.20;36.10
43561;DHT22;32305;46.410;17.394;2023-12-29T09:41:42;24.20;36.30
43561;DHT22;32305;46.410;17.394;2023-12-29T09:44:13;24.30;36.40
43561;DHT22;32305;46.410;17.394;2023-12-29T09:46:41;24.30;36.30
43561;DHT22;32305;46.410;17.394;2023-12-29T09:49:08;24.30;36.40
43561;DHT22;32305;46.410;17.394;2023-12-29T09:51:36;24.30;36.40
43561;DHT22;32305;46.410;17.394;2023-12-29T09:54:03;24.30;36.60
43561;DHT22;32305;46.410;17.394;2023-12-29T09:56:31;24.30;36.70
43561;DHT22;32305;46.410;17.394;2023-12-29T09:58:58;24.30;36.80
43561;DHT22;32305;46.410;17.394;2023-12-29T10:01:26;24.40;36.80
43561;DHT22;32305;46.410;17.394;2023-12-29T10:03:59;24.40;36.70
43561;DHT22;32305;46.410;17.394;2023-12-29T10:06:26;24.40;36.50
43561;DHT22;32305;46.410;17.394;2023-12-29T10:08:57;24.40;36.40
43561;DHT22;32305;46.410;17.394;2023-12-29T10:11:24;24.50;36.50
43561;DHT22;32305;46.410;17.394;2023-12-29T10:13:54;24.40;36.40
43561;DHT22;32305;46.410;17.394;2023-12-29T10:16:24;24.50;36.40
43561;DHT22;32305;46.410;17.394;2023-12-29T10:18:58;24.50;36.30
43561;DHT22;32305;46.410;17.394;2023-12-29T10:21:29;24.50;36.20
43561;DHT22;32305;46.410;17.394;2023-12-29T10:24:03;24.50;36.10
43561;DHT22;32305;46.410;17.394;2023-12-29T10:26:35;24.50;36.10
43561;DHT22;32305;46.410;17.394;2023-12-29T10:29:03;24.50;36.00
43561;DHT22;32305;46.410;17.394;2023-12-29T10:31:30;24.50;35.90
43561;DHT22;32305;46.410;17.394;2023-12-29T10:36:48;24.50;35.70
43561;DHT22;32305;46.410;17.394;2023-12-29T10:39:16;24.60;35.50
43561;DHT22;32305;46.410;17.394;2023-12-29T10:41:43;24.60;35.40
43561;DHT22;32305;46.410;17.394;2023-12-29T10:44:09;24.60;35.30
43561;DHT22;32305;46.410;17.394;2023-12-29T10:46:36;24.60;35.20
43561;DHT22;32305;46.410;17.394;2023-12-29T10:49:07;24.50;35.00
43561;DHT22;32305;46.410;17.394;2023-12-29T10:51:35;24.60;34.90
43561;DHT22;32305;46.410;17.394;2023-12-29T10:54:03;24.50;34.70
43561;DHT22;32305;46.410;17.394;2023-12-29T10:56:33;24.50;34.70
43561;DHT22;32305;46.410;17.394;2023-12-29T10:59:01;24.60;34.70
43561;DHT22;32305;46.410;17.394;2023-12-29T11:01:33;24.60;34.60
43561;DHT22;32305;46.410;17.394;2023-12-29T11:04:04;24.50;34.60
43561;DHT22;32305;46.410;17.394;2023-12-29T11:06:42;24.60;34.50
43561;DHT22;32305;46.410;17.394;2023-12-29T11:09:11;24.60;34.50
43561;DHT22;32305;46.410;17.394;2023-12-29T11:11:38;24.50;34.40
43561;DHT22;32305;46.410;17.394;2023-12-29T11:14:05;24.60;34.50
43561;DHT22;32305;46.410;17.394;2023-12-29T11:16:32;24.50;34.40
43561;DHT22;32305;46.410;17.394;2023-12-29T11:18:59;24.60;35.00
43561;DHT22;32305;46.410;17.394;2023-12-29T11:21:28;24.50;34.30
43561;DHT22;32305;46.410;17.394;2023-12-29T11:23:59;24.50;34.30
43561;DHT22;32305;46.410;17.394;2023-12-29T11:26:25;24.50;34.30
43561;DHT22;32305;46.410;17.394;2023-12-29T11:28:55;24.60;34.30
43561;DHT22;32305;46.410;17.394;2023-12-29T11:31:22;24.60;34.40
43561;DHT22;32305;46.410;17.394;2023-12-29T11:33:50;24.60;34.30
43561;DHT22;32305;46.410;17.394;2023-12-29T11:36:20;24.60;34.40
43561;DHT22;32305;46.410;17.394;2023-12-29T11:39:02;24.60;34.40
43561;DHT22;32305;46.410;17.394;2023-12-29T11:41:39;24.60;34.40
43561;DHT22;32305;46.410;17.394;2023-12-29T11:44:07;24.60;34.30
43561;DHT22;32305;46.410;17.394;2023-12-29T11:46:38;24.60;34.40
43561;DHT22;32305;46.410;17.394;2023-12-29T11:49:06;24.70;34.40
43561;DHT22;32305;46.410;17.394;2023-12-29T11:51:34;24.60;34.80
43561;DHT22;32305;46.410;17.394;2023-12-29T11:54:02;24.70;35.20
43561;DHT22;32305;46.410;17.394;2023-12-29T11:56:34;24.70;35.30
43561;DHT22;32305;46.410;17.394;2023-12-29T11:59:17;24.70;35.40
43561;DHT22;32305;46.410;17.394;2023-12-29T12:01:50;24.70;35.50
43561;DHT22;32305;46.410;17.394;2023-12-29T12:04:34;24.70;35.60
43561;DHT22;32305;46.410;17.394;2023-12-29T12:07:03;24.70;35.80
43561;DHT22;32305;46.410;17.394;2023-12-29T12:09:31;24.70;35.80
43561;DHT22;32305;46.410;17.394;2023-12-29T12:11:58;24.80;35.90
43561;DHT22;32305;46.410;17.394;2023-12-29T12:14:43;24.80;36.00
43561;DHT22;32305;46.410;17.394;2023-12-29T12:17:10;24.80;36.00
43561;DHT22;32305;46.410;17.394;2023-12-29T12:19:37;24.80;35.90
43561;DHT22;32305;46.410;17.394;2023-12-29T12:22:04;24.80;35.80
43561;DHT22;32305;46.410;17.394;2023-12-29T12:24:33;24.80;35.70
43561;DHT22;32305;46.410;17.394;2023-12-29T12:27:02;24.80;35.90
43561;DHT22;32305;46.410;17.394;2023-12-29T12:29:29;24.80;35.90
43561;DHT22;32305;46.410;17.394;2023-12-29T12:31:59;24.80;35.90
43561;DHT22;32305;46.410;17.394;2023-12-29T12:34:26;24.80;36.00
43561;DHT22;32305;46.410;17.394;2023-12-29T12:37:06;24.90;36.10
43561;DHT22;32305;46.410;17.394;2023-12-29T12:39:40;24.90;36.10
43561;DHT22;32305;46.410;17.394;2023-12-29T12:42:08;24.90;36.10
43561;DHT22;32305;46.410;17.394;2023-12-29T12:44:38;24.90;36.00
43561;DHT22;32305;46.410;17.394;2023-12-29T12:47:06;24.90;36.10
43561;DHT22;32305;46.410;17.394;2023-12-29T12:49:34;24.90;36.00
43561;DHT22;32305;46.410;17.394;2023-12-29T12:52:02;24.90;35.90
43561;DHT22;32305;46.410;17.394;2023-12-29T12:54:29;24.90;35.90
43561;DHT22;32305;46.410;17.394;2023-12-29T12:56:58;24.90;35.90
43561;DHT22;32305;46.410;17.394;2023-12-29T12:59:25;24.90;36.60
43561;DHT22;32305;46.410;17.394;2023-12-29T13:01:53;24.90;37.10
43561;DHT22;32305;46.410;17.394;2023-12-29T13:04:21;24.90;37.60
43561;DHT22;32305;46.410;17.394;2023-12-29T13:06:48;24.90;38.30
43561;DHT22;32305;46.410;17.394;2023-12-29T13:09:18;24.90;38.80
43561;DHT22;32305;46.410;17.394;2023-12-29T13:11:46;24.90;39.40
43561;DHT22;32305;46.410;17.394;2023-12-29T13:14:23;24.90;39.60
43561;DHT22;32305;46.410;17.394;2023-12-29T13:16:52;24.90;39.60
43561;DHT22;32305;46.410;17.394;2023-12-29T13:19:19;24.90;39.40
43561;DHT22;32305;46.410;17.394;2023-12-29T13:21:50;24.80;39.00
43561;DHT22;32305;46.410;17.394;2023-12-29T13:24:18;24.80;38.60
43561;DHT22;32305;46.410;17.394;2023-12-29T13:26:45;24.80;38.30
43561;DHT22;32305;46.410;17.394;2023-12-29T13:29:14;24.80;37.90
43561;DHT22;32305;46.410;17.394;2023-12-29T13:31:41;24.80;37.60
43561;DHT22;32305;46.410;17.394;2023-12-29T13:34:11;24.80;37.40
43561;DHT22;32305;46.410;17.394;2023-12-29T13:39:35;24.70;37.10
43561;DHT22;32305;46.410;17.394;2023-12-29T13:42:02;24.70;36.90
43561;DHT22;32305;46.410;17.394;2023-12-29T13:44:30;24.70;36.70
43561;DHT22;32305;46.410;17.394;2023-12-29T13:46:57;24.70;36.50
43561;DHT22;32305;46.410;17.394;2023-12-29T13:49:25;24.70;36.40
43561;DHT22;32305;46.410;17.394;2023-12-29T13:51:53;24.70;36.20
43561;DHT22;32305;46.410;17.394;2023-12-29T13:54:20;24.70;36.10
43561;DHT22;32305;46.410;17.394;2023-12-29T13:56:52;24.70;36.00
43561;DHT22;32305;46.410;17.394;2023-12-29T13:59:32;24.60;35.90
43561;DHT22;32305;46.410;17.394;2023-12-29T14:02:03;24.60;35.80
43561;DHT22;32305;46.410;17.394;2023-12-29T14:04:30;24.60;35.80
43561;DHT22;32305;46.410;17.394;2023-12-29T14:07:01;24.60;35.70
43561;DHT22;32305;46.410;17.394;2023-12-29T14:09:29;24.60;35.70
43561;DHT22;32305;46.410;17.394;2023-12-29T14:11:56;24.60;36.20
43561;DHT22;32305;46.410;17.394;2023-12-29T14:14:23;24.50;35.50
43561;DHT22;32305;46.410;17.394;2023-12-29T14:16:52;24.50;35.50
43561;DHT22;32305;46.410;17.394;2023-12-29T14:19:19;24.50;35.50
43561;DHT22;32305;46.410;17.394;2023-12-29T14:21:47;24.50;35.40
43561;DHT22;32305;46.410;17.394;2023-12-29T14:24:16;24.50;35.30
43561;DHT22;32305;46.410;17.394;2023-12-29T14:26:55;24.50;35.40
43561;DHT22;32305;46.410;17.394;2023-12-29T14:29:26;24.50;35.30
43561;DHT22;32305;46.410;17.394;2023-12-29T14:31:54;24.40;35.30
43561;DHT22;32305;46.410;17.394;2023-12-29T14:34:22;24.40;35.30
43561;DHT22;32305;46.410;17.394;2023-12-29T14:36:50;24.40;35.30
43561;DHT22;32305;46.410;17.394;2023-12-29T14:39:17;24.40;35.40
43561;DHT22;32305;46.410;17.394;2023-12-29T14:41:43;24.30;35.50
43561;DHT22;32305;46.410;17.394;2023-12-29T14:44:12;24.30;35.60
43561;DHT22;32305;46.410;17.394;2023-12-29T14:46:39;24.30;35.60
43561;DHT22;32305;46.410;17.394;2023-12-29T14:49:06;24.30;35.80
43561;DHT22;32305;46.410;17.394;2023-12-29T14:51:34;24.20;35.80
43561;DHT22;32305;46.410;17.394;2023-12-29T14:54:01;24.20;35.90
43561;DHT22;32305;46.410;17.394;2023-12-29T14:56:30;24.20;36.00
43561;DHT22;32305;46.410;17.394;2023-12-29T14:58:57;24.10;36.00
43561;DHT22;32305;46.410;17.394;2023-12-29T15:01:24;24.10;36.10
43561;DHT22;32305;46.410;17.394;2023-12-29T15:03:53;24.10;36.10
43561;DHT22;32305;46.410;17.394;2023-12-29T15:06:20;24.10;36.30
43561;DHT22;32305;46.410;17.394;2023-12-29T15:08:47;24.10;36.30
43561;DHT22;32305;46.410;17.394;2023-12-29T15:11:14;24.00;36.30
43561;DHT22;32305;46.410;17.394;2023-12-29T15:13:41;24.00;36.40
43561;DHT22;32305;46.410;17.394;2023-12-29T15:16:09;24.00;36.40
43561;DHT22;32305;46.410;17.394;2023-12-29T15:18:36;23.90;36.50
43561;DHT22;32305;46.410;17.394;2023-12-29T15:21:03;23.90;36.50
43561;DHT22;32305;46.410;17.394;2023-12-29T15:26:29;23.90;36.60
43561;DHT22;32305;46.410;17.394;2023-12-29T15:28:56;23.90;36.70